Terminal Aerodrome Forecast
Issued by NWS Mt. Holly, NJ

Home | Current Version | Previous Version | Text Only | Print | Product List | Glossary On
Versions: 1 2 3 4 5 6 7 8 9 10 11 12 13 14 15 16 17 18
579
FTUS41 KPHI 281004 AAA
TAFACY
TAF AMD
KACY 281004Z 2810/2906 VRB03KT 4SM BR SCT250
      TEMPO 2810/2812 1SM BR BKN003
     FM281300 16004KT P6SM SCT250
     FM281700 17008KT P6SM SCT050
     FM282300 17006KT P6SM BKN050
      TEMPO 2903/2905 -SHRA OVC035
     FM290500 15006KT 4SM -SHRA BR OVC035=

USA.gov is the U.S. government's official web portal to all federal, state and local government web resources and services.